Time;durP1;ratioP1;P1;durP2;ratioP2;P2;SDS_P1;SDS_P2;PMS_P1;PMS_P2;Temp;Humidity;BMP_temperature;BMP_pressure;BME280_temperature;BME280_humidity;BME280_pressure;Samples;Min_cycle;Max_cycle;Signal;HPM_P1;HPM_P2
2023/10/10 00:00:03;;;;;;;20.95;8.35;;;17.80;99.90;;;;;;5064767;28;20031;-39
2023/10/10 00:02:29;;;;;;;14.27;6.72;;;17.80;99.90;;;;;;5072584;28;20427;-40
2023/10/10 00:04:55;;;;;;;15.75;6.28;;;17.80;99.90;;;;;;5072447;28;20381;-39
2023/10/10 00:07:26;;;;;;;14.13;6.70;;;17.70;99.90;;;;;;5062151;28;20025;-40
2023/10/10 00:09:51;;;;;;;13.10;6.45;;;17.70;99.90;;;;;;5051138;28;20469;-40
2023/10/10 00:12:29;;;;;;;14.75;7.10;;;17.60;99.90;;;;;;5056508;28;20028;-39
2023/10/10 00:14:57;;;;;;;13.93;6.78;;;17.60;99.90;;;;;;5072865;28;20488;-41
2023/10/10 00:17:23;;;;;;;12.98;7.55;;;17.60;99.90;;;;;;5075885;28;20040;-41
2023/10/10 00:22:36;;;;;;;12.05;5.60;;;17.50;99.90;;;;;;5075905;28;20447;-38
2023/10/10 00:25:04;;;;;;;15.57;7.43;;;17.60;99.90;;;;;;5075857;28;20074;-39
2023/10/10 00:27:31;;;;;;;11.90;7.28;;;17.60;99.90;;;;;;5076067;28;20036;-39
2023/10/10 00:30:02;;;;;;;10.30;6.20;;;17.50;99.90;;;;;;5076451;28;20472;-39
2023/10/10 00:32:35;;;;;;;12.48;5.70;;;17.50;99.90;;;;;;5076101;28;20025;-39
2023/10/10 00:35:05;;;;;;;15.50;6.28;;;17.50;99.90;;;;;;5075103;28;20052;-39
2023/10/10 00:37:34;;;;;;;13.88;7.00;;;17.50;99.90;;;;;;5065201;28;20043;-39
2023/10/10 00:40:09;;;;;;;9.88;5.85;;;17.50;99.90;;;;;;5075688;28;20028;-39
2023/10/10 00:42:41;;;;;;;11.18;7.20;;;17.50;99.90;;;;;;5058151;28;20025;-39
2023/10/10 00:45:12;;;;;;;13.13;7.65;;;17.40;99.90;;;;;;5061952;28;20028;-40
2023/10/10 00:47:43;;;;;;;15.45;8.45;;;17.40;99.90;;;;;;5075224;28;20029;-39
2023/10/10 00:50:18;;;;;;;13.10;7.75;;;17.40;99.90;;;;;;5053919;28;20024;-39
2023/10/10 00:52:52;;;;;;;11.82;6.60;;;17.40;99.90;;;;;;5074766;28;20035;-39
2023/10/10 00:55:33;;;;;;;16.13;8.63;;;17.30;99.90;;;;;;5075211;28;20025;-41
2023/10/10 00:58:00;;;;;;;12.02;6.78;;;17.30;99.90;;;;;;5058282;28;20025;-38
2023/10/10 01:00:29;;;;;;;15.73;8.13;;;17.30;99.90;;;;;;5074866;28;20115;-38
2023/10/10 01:03:14;;;;;;;16.20;8.32;;;17.30;99.90;;;;;;5056645;28;20551;-43
2023/10/10 01:05:42;;;;;;;17.02;8.55;;;17.20;99.90;;;;;;5074395;28;20515;-40
2023/10/10 01:08:08;;;;;;;20.40;9.43;;;17.20;99.90;;;;;;5073753;28;20035;-42
2023/10/10 01:10:43;;;;;;;18.65;9.30;;;17.20;99.90;;;;;;5074947;28;20393;-39
2023/10/10 01:13:10;;;;;;;25.17;9.18;;;17.20;99.90;;;;;;5074564;28;20020;-39
2023/10/10 01:15:36;;;;;;;19.45;8.80;;;17.20;99.90;;;;;;5074902;28;20024;-39
2023/10/10 01:18:13;;;;;;;17.05;9.10;;;17.20;99.90;;;;;;5074615;28;20025;-38
2023/10/10 01:20:46;;;;;;;14.20;6.88;;;17.20;99.90;;;;;;5074788;28;20048;-38
2023/10/10 01:23:14;;;;;;;18.17;9.18;;;17.20;99.90;;;;;;5074219;28;20020;-39
2023/10/10 01:28:41;;;;;;;25.33;11.65;;;17.10;99.90;;;;;;5074471;28;20032;-39
2023/10/10 01:31:04;;;;;;;20.95;10.38;;;17.10;99.90;;;;;;5072030;28;20397;-39
2023/10/10 01:33:36;;;;;;;20.75;9.35;;;17.10;99.90;;;;;;5074359;28;20404;-40
2023/10/10 01:36:12;;;;;;;20.60;9.65;;;17.10;99.90;;;;;;5073037;28;20493;-40
2023/10/10 01:38:44;;;;;;;23.10;10.38;;;17.00;99.90;;;;;;5057106;28;20024;-40
2023/10/10 01:41:21;;;;;;;16.45;9.10;;;17.00;99.90;;;;;;5073494;28;20028;-38
2023/10/10 01:43:47;;;;;;;;;;;17.00;99.90;;;;;;5056318;28;20123;-38
2023/10/10 01:46:27;;;;;;;24.23;11.35;;;16.90;99.90;;;;;;5073573;28;20434;-41
2023/10/10 01:48:56;;;;;;;19.25;9.70;;;16.90;99.90;;;;;;5073016;28;20461;-39
2023/10/10 01:51:24;;;;;;;33.35;13.77;;;17.00;99.90;;;;;;5074308;28;20496;-39
2023/10/10 01:53:52;;;;;;;26.42;12.38;;;16.90;99.90;;;;;;5074119;28;20036;-39
2023/10/10 01:56:18;;;;;;;;;;;16.90;99.90;;;;;;5060867;28;20543;-38
2023/10/10 01:58:44;;;;;;;26.58;11.80;;;16.90;99.90;;;;;;5063926;28;19905;-39
2023/10/10 02:01:19;;;;;;;33.35;14.57;;;16.90;99.90;;;;;;5070156;28;20094;-39
2023/10/10 02:03:50;;;;;;;29.17;13.70;;;16.90;99.90;;;;;;5073092;28;20053;-38
2023/10/10 02:06:24;;;;;;;32.85;15.43;;;16.90;99.90;;;;;;5073409;28;20054;-63
2023/10/10 02:09:10;;;;;;;31.25;13.75;;;16.90;99.90;;;;;;5073418;28;20028;-39
2023/10/10 02:11:36;;;;;;;27.40;13.68;;;16.90;99.90;;;;;;5073299;28;20549;-40
2023/10/10 02:14:02;;;;;;;26.88;14.40;;;16.90;99.90;;;;;;5073095;28;20111;-39
2023/10/10 02:16:35;;;;;;;24.02;13.15;;;16.90;99.90;;;;;;5073318;28;20038;-41
2023/10/10 02:19:15;;;;;;;24.33;13.02;;;16.80;99.90;;;;;;5073611;28;20024;-45
2023/10/10 02:21:47;;;;;;;30.95;14.45;;;16.80;99.90;;;;;;5073212;28;20036;-39
2023/10/10 02:26:55;;;;;;;26.17;14.27;;;16.80;99.90;;;;;;5056515;28;20028;-41
2023/10/10 02:29:34;;;;;;;32.65;15.65;;;16.80;99.90;;;;;;5073184;28;20431;-41
2023/10/10 02:32:11;;;;;;;33.70;16.15;;;16.80;99.90;;;;;;5072868;28;20087;-40
2023/10/10 02:34:38;;;;;;;31.40;13.85;;;16.80;99.90;;;;;;5073028;28;20048;-39
2023/10/10 02:37:41;;;;;;;25.88;13.23;;;16.80;99.90;;;;;;5072224;28;20025;-40
2023/10/10 02:40:14;;;;;;;32.47;15.18;;;16.80;99.90;;;;;;5072937;28;20060;-39
2023/10/10 02:45:28;;;;;;;33.13;15.25;;;16.80;99.90;;;;;;5072298;28;20040;-39
2023/10/10 02:47:54;;;;;;;35.25;17.40;;;16.80;99.90;;;;;;5072374;28;20098;-39
2023/10/10 02:51:03;;;;;;;34.20;16.63;;;16.70;99.90;;;;;;5072985;28;20401;-39
2023/10/10 02:53:09;;;;;;;29.55;15.07;;;16.70;99.90;;;;;;5056101;28;20496;-39
2023/10/10 02:55:41;;;;;;;31.88;14.95;;;16.70;99.90;;;;;;5072351;28;20029;-39
2023/10/10 02:58:22;;;;;;;28.85;13.70;;;16.70;99.90;;;;;;5072831;28;20031;-40
2023/10/10 03:00:49;;;;;;;33.17;15.45;;;16.70;99.90;;;;;;5073225;28;20103;-39
2023/10/10 03:03:18;;;;;;;27.00;14.23;;;16.70;99.90;;;;;;5072579;28;20055;-38
2023/10/10 03:05:50;;;;;;;25.83;14.05;;;16.70;99.90;;;;;;5072472;28;20059;-40
2023/10/10 03:08:26;;;;;;;30.55;15.18;;;16.70;99.90;;;;;;5073081;28;20028;-38
2023/10/10 03:10:59;;;;;;;30.60;15.30;;;16.70;99.90;;;;;;5072800;28;20090;-38
2023/10/10 03:13:30;;;;;;;29.58;14.90;;;16.70;99.90;;;;;;5072618;28;20451;-43
2023/10/10 03:18:52;;;;;;;31.48;16.83;;;16.60;99.90;;;;;;5072735;28;20032;-38
2023/10/10 03:21:36;;;;;;;30.92;14.18;;;16.60;99.90;;;;;;5072685;28;20021;-36
2023/10/10 03:24:15;;;;;;;28.45;14.43;;;16.60;99.90;;;;;;5070627;28;20025;-44
2023/10/10 03:29:21;;;;;;;34.25;16.15;;;16.60;99.90;;;;;;5072141;28;20083;-39
2023/10/10 03:32:18;;;;;;;36.70;17.00;;;16.60;99.90;;;;;;5057705;28;20051;-38
2023/10/10 03:34:44;;;;;;;29.25;13.77;;;16.60;99.90;;;;;;5063652;28;20048;-38
2023/10/10 03:39:58;;;;;;;34.70;15.38;;;16.60;99.90;;;;;;5072033;28;20103;-39
2023/10/10 05:24:21;;;;;;;39.53;17.00;;;16.20;99.90;;;;;;5074925;28;20085;-38
2023/10/10 05:26:47;;;;;;;36.58;17.23;;;16.20;99.90;;;;;;5073631;28;20127;-36
2023/10/10 05:29:24;;;;;;;30.60;14.73;;;16.20;99.90;;;;;;5074409;28;20017;-38
2023/10/10 05:31:51;;;;;;;29.63;16.43;;;16.10;99.90;;;;;;5073381;28;20033;-39
2023/10/10 05:34:20;;;;;;;39.53;16.38;;;16.10;99.90;;;;;;5071822;28;20033;-38
2023/10/10 05:36:46;;;;;;;34.15;16.65;;;16.10;99.90;;;;;;5073742;28;20043;-40
2023/10/10 05:39:17;;;;;;;37.85;16.55;;;16.10;99.90;;;;;;5073239;28;20025;-40
2023/10/10 05:41:44;;;;;;;32.15;15.30;;;16.10;99.90;;;;;;5074185;28;20404;-38
2023/10/10 05:44:13;;;;;;;35.95;17.20;;;16.10;99.90;;;;;;5074025;28;20027;-39
2023/10/10 05:46:39;;;;;;;40.42;18.17;;;16.10;99.90;;;;;;5051887;28;20056;-39
2023/10/10 05:49:05;;;;;;;41.47;18.23;;;16.10;99.90;;;;;;5049724;28;20040;-39
2023/10/10 05:51:31;;;;;;;35.63;17.02;;;16.10;99.90;;;;;;5073772;28;20362;-39
2023/10/10 05:53:57;;;;;;;40.35;18.77;;;16.00;99.90;;;;;;5074350;28;20036;-40
2023/10/10 05:56:23;;;;;;;38.58;17.75;;;16.10;99.90;;;;;;5073891;28;20021;-38
2023/10/10 05:58:49;;;;;;;44.58;17.50;;;16.00;99.90;;;;;;5073774;28;20092;-38
2023/10/10 06:01:16;;;;;;;38.15;19.17;;;16.00;99.90;;;;;;5073647;28;20492;-40
2023/10/10 06:03:46;;;;;;;39.28;17.48;;;16.00;99.90;;;;;;5069221;28;20052;-39
2023/10/10 06:06:13;;;;;;;37.45;17.13;;;16.00;99.90;;;;;;5073897;28;20811;-38
2023/10/10 06:08:42;;;;;;;42.92;19.83;;;16.00;99.90;;;;;;5073816;28;20056;-46
2023/10/10 06:11:09;;;;;;;40.90;19.63;;;16.00;99.90;;;;;;5073202;28;20131;-39
2023/10/10 06:13:39;;;;;;;51.00;20.42;;;16.00;99.90;;;;;;5072727;28;20036;-38
2023/10/10 06:16:15;;;;;;;37.78;18.88;;;16.00;99.90;;;;;;5073456;28;20592;-40
2023/10/10 06:18:44;;;;;;;39.72;17.98;;;16.00;99.90;;;;;;5073802;28;20027;-38
2023/10/10 06:21:09;;;;;;;40.33;18.63;;;16.00;99.90;;;;;;5073363;28;20516;-40
2023/10/10 06:23:35;;;;;;;45.80;21.08;;;16.00;99.90;;;;;;5053939;28;20013;-38
2023/10/10 06:26:02;;;;;;;39.45;18.08;;;16.00;99.90;;;;;;5072950;28;20048;-39
2023/10/10 06:28:29;;;;;;;38.25;17.98;;;16.00;99.90;;;;;;5054819;28;20048;-38
2023/10/10 06:30:55;;;;;;;40.42;18.38;;;16.10;99.90;;;;;;5072815;28;20052;-39
2023/10/10 06:33:28;;;;;;;41.88;18.55;;;16.10;99.90;;;;;;5073302;28;20079;-40
2023/10/10 06:38:59;;;;;;;37.08;18.90;;;16.10;99.90;;;;;;5072830;28;20044;-38
2023/10/10 06:41:34;;;;;;;45.75;19.08;;;16.20;99.90;;;;;;5072725;28;20192;-39
2023/10/10 06:43:59;;;;;;;39.20;18.55;;;16.20;99.90;;;;;;5062191;28;20067;-40
2023/10/10 06:46:32;;;;;;;51.17;19.60;;;16.20;99.90;;;;;;5073104;28;20055;-39
2023/10/10 06:49:12;;;;;;;40.00;19.27;;;16.20;99.90;;;;;;5054513;28;20036;-38
2023/10/10 06:51:41;;;;;;;37.08;18.63;;;16.30;99.90;;;;;;5072952;28;20020;-40
2023/10/10 06:54:08;;;;;;;38.05;18.05;;;16.30;99.90;;;;;;5072463;28;20043;-38
2023/10/10 06:56:44;;;;;;;34.22;18.08;;;16.30;99.90;;;;;;5072834;28;20377;-41
2023/10/10 06:59:16;;;;;;;46.42;19.45;;;16.30;99.90;;;;;;5072693;28;20031;-39
2023/10/10 07:01:45;;;;;;;39.22;19.30;;;16.30;99.90;;;;;;5071449;28;20170;-40
2023/10/10 07:04:13;;;;;;;37.33;18.25;;;16.40;99.90;;;;;;5072782;28;20411;-39
2023/10/10 07:06:47;;;;;;;36.05;17.58;;;16.40;99.90;;;;;;5055075;28;20473;-43
2023/10/10 07:09:29;;;;;;;34.75;17.17;;;16.40;99.90;;;;;;5072679;28;20503;-39
2023/10/10 07:12:11;;;;;;;37.85;19.40;;;16.50;99.90;;;;;;5071816;28;20024;-38
2023/10/10 07:14:46;;;;;;;30.42;16.50;;;16.50;99.90;;;;;;5068720;28;20377;-39
2023/10/10 07:17:13;;;;;;;38.50;18.27;;;16.50;99.90;;;;;;5061502;28;20381;-38
2023/10/10 07:20:54;;;;;;;30.70;13.75;;;16.50;99.90;;;;;;5072323;28;20033;-39
2023/10/10 07:22:41;;;;;;;34.55;17.38;;;16.50;99.90;;;;;;5085920;28;20039;-39
2023/10/10 07:25:18;;;;;;;38.25;16.67;;;16.60;99.90;;;;;;5070394;28;20056;-39
2023/10/10 07:27:47;;;;;;;37.87;18.73;;;16.60;99.90;;;;;;5071876;28;20480;-40
2023/10/10 07:30:18;;;;;;;37.35;17.23;;;16.60;99.90;;;;;;5051640;28;20291;-39
2023/10/10 07:32:48;;;;;;;33.85;18.25;;;16.60;99.90;;;;;;5054582;28;20024;-38
2023/10/10 07:35:16;;;;;;;40.17;18.60;;;16.60;99.90;;;;;;5072325;28;20084;-39
2023/10/10 07:37:45;;;;;;;38.25;16.95;;;16.70;99.90;;;;;;5072362;28;20039;-38
2023/10/10 07:42:49;;;;;;;40.75;18.33;;;16.80;99.90;;;;;;5072188;28;20047;-37
2023/10/10 07:45:27;;;;;;;38.13;18.67;;;16.80;99.90;;;;;;5072349;28;20037;-39
2023/10/10 07:50:34;;;;;;;33.47;17.08;;;16.90;99.90;;;;;;5072807;28;20120;-37
2023/10/10 07:53:06;;;;;;;40.83;17.80;;;16.90;99.90;;;;;;5072416;28;20024;-41
2023/10/10 07:56:16;;;;;;;32.40;18.23;;;16.90;99.90;;;;;;5071693;28;20419;-38
2023/10/10 07:58:29;;;;;;;35.72;17.08;;;16.90;99.90;;;;;;5060905;28;20029;-37
2023/10/10 08:01:08;;;;;;;34.83;16.58;;;17.00;99.90;;;;;;5060441;28;20029;-38
2023/10/10 08:03:34;;;;;;;32.38;17.33;;;17.00;99.90;;;;;;5072206;28;20029;-36
2023/10/10 08:06:00;;;;;;;26.88;15.27;;;17.10;99.90;;;;;;5071820;28;20021;-37
2023/10/10 08:08:26;;;;;;;36.05;17.48;;;17.10;99.90;;;;;;5071991;28;20482;-47
2023/10/10 08:10:51;;;;;;;32.90;16.88;;;17.20;99.90;;;;;;5071744;28;20534;-42
2023/10/10 08:13:20;;;;;;;35.20;16.63;;;17.20;99.90;;;;;;5071716;28;20074;-38
2023/10/10 08:15:56;;;;;;;36.60;17.15;;;17.30;99.90;;;;;;5072242;28;20475;-36
2023/10/10 08:21:13;;;;;;;;;;;17.30;99.90;;;;;;5072684;28;20052;-47
2023/10/10 08:23:45;;;;;;;34.25;16.38;;;17.30;99.90;;;;;;5072053;28;19908;-45
2023/10/10 08:26:29;;;;;;;33.30;17.35;;;17.30;99.90;;;;;;5072034;28;20104;-36
2023/10/10 08:28:55;;;;;;;35.05;15.85;;;17.30;99.90;;;;;;5072298;28;20039;-38
2023/10/10 08:31:24;;;;;;;33.53;16.90;;;17.40;99.90;;;;;;5072082;28;20393;-42
2023/10/10 08:33:50;;;;;;;30.90;15.50;;;17.40;99.90;;;;;;5071157;28;20052;-44
2023/10/10 08:36:23;;;;;;;37.53;17.02;;;17.40;99.90;;;;;;5073802;28;20021;-37
2023/10/10 08:38:57;;;;;;;36.67;16.73;;;17.50;99.90;;;;;;5075515;28;20072;-37
2023/10/10 08:41:26;;;;;;;35.60;16.92;;;17.50;99.90;;;;;;5073115;28;20637;-42
2023/10/10 08:43:53;;;;;;;34.08;17.05;;;17.60;99.90;;;;;;5057750;28;20028;-37
2023/10/10 08:46:24;;;;;;;30.95;16.05;;;17.70;99.90;;;;;;5075562;28;20162;-37
2023/10/10 08:48:51;;;;;;;37.53;17.55;;;17.70;99.90;;;;;;5075184;28;20089;-37
2023/10/10 08:51:17;;;;;;;34.57;16.47;;;17.70;99.90;;;;;;5074804;28;20119;-37
2023/10/10 08:53:44;;;;;;;40.17;18.37;;;17.70;99.90;;;;;;5074671;28;20025;-37
2023/10/10 08:56:14;;;;;;;35.38;16.05;;;17.80;99.90;;;;;;5075288;28;20233;-37
2023/10/10 08:58:40;;;;;;;36.83;16.90;;;17.90;99.90;;;;;;5067827;28;20524;-36
2023/10/10 09:01:08;;;;;;;39.45;17.45;;;17.90;99.90;;;;;;5070201;28;20052;-38
2023/10/10 09:03:34;;;;;;;30.30;17.23;;;18.00;99.90;;;;;;5056375;28;20043;-39
2023/10/10 09:06:20;;;;;;;34.92;17.10;;;18.00;99.90;;;;;;5074525;28;20024;-39
2023/10/10 09:08:52;;;;;;;39.97;16.27;;;18.10;99.90;;;;;;5075276;28;20043;-38
2023/10/10 09:11:23;;;;;;;30.83;16.20;;;18.20;99.90;;;;;;5075249;28;20032;-36
2023/10/10 09:13:52;;;;;;;38.15;17.45;;;18.30;99.90;;;;;;5075318;28;20020;-36
2023/10/10 09:16:38;;;;;;;30.80;16.52;;;18.40;99.90;;;;;;5073362;28;20020;-38
2023/10/10 09:19:11;;;;;;;35.63;15.10;;;18.40;99.90;;;;;;5073169;28;20086;-43
2023/10/10 09:21:56;;;;;;;27.83;15.85;;;18.50;99.90;;;;;;5074581;28;20025;-38
2023/10/10 09:24:31;;;;;;;30.40;14.50;;;18.60;99.90;;;;;;5075067;28;20139;-38
2023/10/10 09:26:59;;;;;;;32.83;16.48;;;18.70;99.90;;;;;;5073991;28;20020;-38
2023/10/10 09:29:32;;;;;;;33.55;15.68;;;18.80;99.90;;;;;;5075058;28;20029;-37
2023/10/10 09:31:59;;;;;;;28.33;15.25;;;18.90;99.90;;;;;;5074388;28;20086;-38
2023/10/10 09:34:29;;;;;;;28.05;14.35;;;19.00;99.90;;;;;;5073647;28;20437;-39
2023/10/10 09:36:57;;;;;;;26.80;15.35;;;19.10;99.90;;;;;;5073497;28;20418;-40
2023/10/10 09:39:37;;;;;;;26.40;13.32;;;19.10;99.90;;;;;;5073557;28;20415;-37
2023/10/10 09:42:28;;;;;;;22.38;13.30;;;19.10;99.90;;;;;;5055313;28;20027;-37
2023/10/10 09:47:52;;;;;;;31.52;15.00;;;19.30;99.90;;;;;;5074159;28;20033;-37
2023/10/10 09:52:54;;;;;;;22.73;12.88;;;19.60;99.90;;;;;;5073971;28;20501;-38
2023/10/10 10:06:05;;;;;;;24.77;12.48;;;19.90;99.90;;;;;;5074227;28;20036;-38
2023/10/10 10:09:17;;;;;;;22.42;12.93;;;19.90;99.90;;;;;;5055438;28;20032;-41
2023/10/10 10:12:04;;;;;;;30.23;14.00;;;20.00;99.90;;;;;;5069940;28;20031;-38
2023/10/10 10:15:01;;;;;;;28.67;12.68;;;20.10;99.90;;;;;;5072207;28;20489;-40
2023/10/10 10:17:49;;;;;;;25.38;12.80;;;20.10;99.90;;;;;;5073646;28;20043;-38
2023/10/10 10:20:24;;;;;;;24.35;14.35;;;20.10;99.90;;;;;;5072272;28;20043;-39
2023/10/10 10:22:53;;;;;;;27.77;14.15;;;20.00;99.90;;;;;;5073400;28;20021;-38
2023/10/10 10:25:25;;;;;;;25.30;12.60;;;20.10;99.90;;;;;;5073604;28;20028;-37
2023/10/10 10:28:14;;;;;;;23.58;13.60;;;20.20;99.90;;;;;;5073119;28;20028;-37
2023/10/10 10:30:50;;;;;;;28.17;13.05;;;20.30;99.90;;;;;;5073809;28;20111;-38
2023/10/10 10:33:22;;;;;;;25.52;13.32;;;20.40;99.90;;;;;;5071796;28;20087;-38
2023/10/10 10:35:56;;;;;;;25.92;12.90;;;20.50;99.90;;;;;;5073342;28;20028;-39
2023/10/10 10:38:25;;;;;;;31.25;12.88;;;20.60;99.90;;;;;;5073283;28;20032;-37
2023/10/10 10:41:04;;;;;;;23.85;12.95;;;20.70;99.90;;;;;;5073386;28;20032;-38
2023/10/10 10:43:42;;;;;;;21.67;11.50;;;20.80;99.90;;;;;;5073107;28;20111;-38
2023/10/10 10:46:14;;;;;;;;;;;20.90;99.90;;;;;;5074184;28;20405;-37
2023/10/10 10:48:54;;;;;;;26.02;12.38;;;20.90;99.90;;;;;;5063128;28;19916;-37
2023/10/10 10:51:32;;;;;;;24.08;13.63;;;21.00;99.90;;;;;;5053513;28;20386;-37
2023/10/10 10:53:58;;;;;;;20.35;11.75;;;21.10;99.90;;;;;;5063867;28;20028;-37
2023/10/10 10:59:13;;;;;;;30.08;13.07;;;21.10;99.90;;;;;;5072314;28;20036;-37
2023/10/10 11:01:42;;;;;;;23.35;12.73;;;21.20;99.90;;;;;;5063613;28;20039;-38
2023/10/10 11:04:14;;;;;;;28.05;13.15;;;21.30;99.90;;;;;;5072752;28;20485;-39
2023/10/10 11:07:07;;;;;;;24.30;11.80;;;21.20;99.90;;;;;;5073027;28;20032;-38
2023/10/10 11:09:34;;;;;;;21.58;12.32;;;21.30;99.90;;;;;;5072273;28;20431;-38
2023/10/10 11:12:05;;;;;;;24.75;13.30;;;21.40;99.90;;;;;;5072225;28;20119;-38
2023/10/10 11:14:32;;;;;;;29.52;13.90;;;21.40;99.90;;;;;;5070800;28;20032;-45
2023/10/10 11:16:58;;;;;;;25.63;12.57;;;21.50;99.90;;;;;;5069606;28;20397;-38
2023/10/10 11:21:57;;;;;;;21.35;11.25;;;21.80;99.90;;;;;;5055205;28;20036;-41
2023/10/10 11:24:29;;;;;;;22.83;11.80;;;21.90;99.90;;;;;;5072047;28;20031;-37
2023/10/10 11:29:45;;;;;;;27.48;11.05;;;22.00;99.90;;;;;;5068098;28;20049;-37
2023/10/10 11:32:24;;;;;;;27.00;11.82;;;22.20;99.90;;;;;;5053403;28;20028;-38
2023/10/10 11:34:57;;;;;;;25.30;12.43;;;22.20;99.90;;;;;;5072107;28;20043;-38
2023/10/10 11:37:31;;;;;;;20.63;9.82;;;22.10;99.90;;;;;;5063879;28;20377;-38
2023/10/10 11:40:19;;;;;;;17.50;9.38;;;22.00;99.90;;;;;;5046962;28;20051;-40
2023/10/10 11:42:49;;;;;;;23.48;10.73;;;22.00;99.90;;;;;;5071414;28;20115;-37
2023/10/10 11:45:19;;;;;;;19.90;10.73;;;22.00;99.90;;;;;;5072655;28;20058;-38
2023/10/10 11:47:51;;;;;;;26.70;11.07;;;21.90;99.90;;;;;;5072761;28;20031;-38
2023/10/10 11:50:17;;;;;;;21.00;11.18;;;21.80;99.90;;;;;;5072514;28;20610;-38
2023/10/10 11:52:56;;;;;;;24.40;11.18;;;21.90;99.90;;;;;;5072511;28;20028;-39
2023/10/10 11:55:25;;;;;;;20.08;10.27;;;21.90;99.90;;;;;;5072583;28;20056;-37
2023/10/10 11:57:57;;;;;;;23.17;11.38;;;22.00;99.90;;;;;;5072456;28;20036;-43
2023/10/10 12:00:36;;;;;;;17.10;10.32;;;22.10;99.90;;;;;;5072564;28;20109;-54
2023/10/10 12:03:05;;;;;;;22.30;10.85;;;22.20;99.90;;;;;;5072662;28;20393;-40
2023/10/10 12:08:00;;;;;;;21.90;11.65;;;22.40;99.90;;;;;;5072642;28;20151;-36
2023/10/10 12:10:42;;;;;;;19.10;9.98;;;22.50;99.90;;;;;;5074882;28;20032;-36
2023/10/10 12:13:09;;;;;;;25.90;9.45;;;22.60;99.90;;;;;;5076221;28;20083;-37
2023/10/10 12:15:40;;;;;;;16.60;8.23;;;22.60;99.90;;;;;;5058263;28;20045;-37
2023/10/10 12:18:13;;;;;;;15.95;8.80;;;22.70;99.90;;;;;;5076363;28;20017;-38
2023/10/10 12:20:43;;;;;;;21.38;9.10;;;22.80;99.90;;;;;;5061278;28;20039;-38
2023/10/10 12:23:13;;;;;;;24.58;9.00;;;22.90;99.90;;;;;;5068448;28;20121;-37
2023/10/10 12:25:42;;;;;;;22.13;10.52;;;23.10;99.90;;;;;;5068724;28;20551;-38
2023/10/10 12:28:12;;;;;;;21.35;9.95;;;23.20;99.90;;;;;;5076012;28;20103;-37
2023/10/10 12:30:41;;;;;;;21.55;10.25;;;23.30;99.90;;;;;;5076051;28;20024;-37
2023/10/10 12:33:08;;;;;;;18.40;10.05;;;23.40;99.90;;;;;;5075882;28;20025;-37
2023/10/10 12:35:35;;;;;;;;;;;23.50;99.90;;;;;;5075885;28;20052;-40
2023/10/10 12:38:01;;;;;;;20.50;9.53;;;23.60;99.90;;;;;;5074481;28;19908;-38
2023/10/10 12:40:33;;;;;;;17.90;8.90;;;23.60;99.90;;;;;;5075794;28;20032;-36
2023/10/10 12:43:01;;;;;;;16.92;8.35;;;23.70;99.90;;;;;;5075818;28;20365;-38
2023/10/10 12:45:29;;;;;;;16.98;8.55;;;23.70;99.90;;;;;;5057202;28;20389;-39
2023/10/10 12:47:58;;;;;;;13.80;7.00;;;23.80;99.90;;;;;;5074649;28;20116;-37
2023/10/10 12:50:26;;;;;;;19.42;8.63;;;23.80;99.90;;;;;;5071766;28;20095;-37
2023/10/10 12:53:07;;;;;;;18.15;7.50;;;23.70;99.90;;;;;;5075449;28;20033;-40
2023/10/10 12:55:46;;;;;;;16.85;7.93;;;23.70;99.90;;;;;;5075598;28;20115;-38
2023/10/10 12:58:15;;;;;;;15.40;7.32;;;23.60;99.90;;;;;;5075790;28;20381;-38
2023/10/10 13:00:51;;;;;;;22.63;7.53;;;23.70;99.90;;;;;;5074565;28;20491;-37
2023/10/10 13:03:32;;;;;;;18.48;8.35;;;23.70;99.90;;;;;;5074452;28;20020;-37
2023/10/10 13:06:00;;;;;;;17.08;7.40;;;23.70;99.90;;;;;;5075055;28;20055;-37
2023/10/10 13:08:46;;;;;;;13.25;7.47;;;23.60;99.90;;;;;;5074751;28;20345;-39
2023/10/10 13:11:14;;;;;;;12.90;7.22;;;23.60;99.90;;;;;;5073742;28;20111;-37
2023/10/10 13:13:48;;;;;;;14.43;7.60;;;23.80;99.90;;;;;;5075230;28;20028;-38
2023/10/10 13:19:05;;;;;;;16.48;7.47;;;24.10;99.90;;;;;;5074364;28;20040;-37
2023/10/10 13:21:37;;;;;;;17.48;7.30;;;24.10;99.90;;;;;;5069578;28;20025;-39
2023/10/10 13:24:09;;;;;;;13.38;8.07;;;23.90;99.90;;;;;;5074503;28;20503;-37
2023/10/10 13:26:36;;;;;;;17.17;7.07;;;23.60;99.90;;;;;;5074763;28;20082;-37
2023/10/10 13:29:02;;;;;;;11.68;6.30;;;23.40;99.90;;;;;;5074934;28;20489;-39
2023/10/10 13:31:29;;;;;;;18.50;7.75;;;23.20;99.90;;;;;;5073927;28;20120;-38
2023/10/10 13:33:56;;;;;;;10.82;6.70;;;23.00;99.90;;;;;;5074157;28;20040;-38
2023/10/10 13:36:22;;;;;;;13.88;7.82;;;22.80;99.90;;;;;;5074928;28;20031;-37
2023/10/10 13:38:50;;;;;;;14.10;7.35;;;22.70;99.90;;;;;;5074592;28;20389;-37
2023/10/10 13:41:18;;;;;;;25.08;8.80;;;22.60;99.90;;;;;;5074947;28;20389;-38
2023/10/10 13:43:48;;;;;;;11.85;6.32;;;22.60;99.90;;;;;;5073292;28;20048;-37
2023/10/10 13:46:15;;;;;;;10.60;6.78;;;22.50;99.90;;;;;;5073846;28;20040;-38
2023/10/10 13:48:41;;;;;;;21.73;8.83;;;22.60;99.90;;;;;;5073512;28;20031;-39
2023/10/10 13:51:07;;;;;;;19.98;8.45;;;22.80;99.90;;;;;;5073342;28;20029;-37
2023/10/10 13:53:40;;;;;;;14.30;7.65;;;22.80;99.90;;;;;;5073671;28;20024;-73
2023/10/10 13:56:07;;;;;;;22.85;9.77;;;22.90;99.90;;;;;;5053906;28;20031;-66
2023/10/10 13:58:33;;;;;;;15.30;7.57;;;23.10;99.90;;;;;;5070759;28;20047;-37
2023/10/10 14:01:14;;;;;;;16.52;7.80;;;23.10;99.90;;;;;;5073306;28;20527;-39
2023/10/10 14:03:45;;;;;;;15.82;7.05;;;23.20;99.90;;;;;;5073673;28;20028;-38
2023/10/10 14:06:22;;;;;;;18.77;8.60;;;23.40;99.90;;;;;;5056269;28;20036;-39
2023/10/10 14:08:48;;;;;;;17.73;7.32;;;23.70;99.90;;;;;;5074471;28;20034;-38
2023/10/10 14:11:20;;;;;;;14.63;6.80;;;24.00;99.90;;;;;;5074009;28;20036;-37
2023/10/10 14:13:54;;;;;;;14.00;6.28;;;24.10;99.90;;;;;;5074086;28;20028;-37
2023/10/10 14:16:21;;;;;;;12.98;5.55;;;24.10;99.90;;;;;;5074037;28;20040;-38
2023/10/10 14:18:51;;;;;;;13.52;5.97;;;24.30;99.90;;;;;;5073957;28;20536;-37
2023/10/10 14:21:24;;;;;;;11.73;5.43;;;24.40;99.90;;;;;;5073989;28;20020;-37
2023/10/10 14:26:36;;;;;;;17.55;5.80;;;24.60;99.90;;;;;;5073766;28;20043;-37
2023/10/10 14:29:05;;;;;;;16.67;5.82;;;24.60;99.90;;;;;;5073701;28;20392;-39
2023/10/10 14:31:32;;;;;;;15.27;5.55;;;24.60;99.90;;;;;;5056461;28;20443;-37
2023/10/10 14:34:00;;;;;;;14.45;5.70;;;24.50;99.90;;;;;;5072782;28;20037;-37
2023/10/10 14:36:27;;;;;;;10.55;4.82;;;24.50;99.90;;;;;;5073822;28;20025;-37
2023/10/10 14:38:53;;;;;;;14.50;5.65;;;24.40;99.90;;;;;;5073445;28;20027;-38
2023/10/10 14:41:22;;;;;;;12.43;6.53;;;24.30;99.90;;;;;;5073533;28;20082;-37
2023/10/10 14:43:54;;;;;;;18.33;6.03;;;24.20;99.90;;;;;;5073537;28;20180;-39
2023/10/10 14:46:33;;;;;;;12.50;6.25;;;24.00;99.90;;;;;;5073701;28;20393;-47
2023/10/10 14:49:05;;;;;;;12.73;5.97;;;23.90;99.90;;;;;;5073371;28;20032;-38
2023/10/10 14:51:36;;;;;;;9.48;5.57;;;23.80;99.90;;;;;;5073375;28;20047;-38
2023/10/10 14:54:06;;;;;;;13.52;6.18;;;23.70;99.90;;;;;;5073507;28;20107;-44
2023/10/10 14:56:37;;;;;;;8.35;5.25;;;23.70;99.90;;;;;;5073244;28;20020;-39
2023/10/10 14:59:04;;;;;;;9.80;4.82;;;23.60;99.90;;;;;;5073516;28;20550;-44
2023/10/10 15:01:36;;;;;;;12.27;5.13;;;23.50;99.90;;;;;;5073106;28;20081;-38
2023/10/10 15:04:06;;;;;;;13.50;5.47;;;23.50;99.90;;;;;;5073423;28;20098;-37
2023/10/10 15:06:33;;;;;;;12.35;6.53;;;23.40;99.90;;;;;;5073052;28;20400;-38
2023/10/10 15:08:59;;;;;;;;;;;23.40;99.90;;;;;;5073544;28;20528;-38
2023/10/10 15:11:29;;;;;;;12.23;5.80;;;23.40;99.90;;;;;;5055017;28;19999;-38
2023/10/10 15:13:58;;;;;;;12.98;6.57;;;23.20;99.90;;;;;;5072944;28;20051;-38
2023/10/10 15:16:27;;;;;;;11.60;6.30;;;23.20;99.90;;;;;;5072934;28;20025;-38
2023/10/10 15:18:53;;;;;;;15.90;6.30;;;23.10;99.90;;;;;;5054502;28;20032;-38
2023/10/10 15:21:22;;;;;;;12.77;6.13;;;23.10;99.90;;;;;;5072773;28;20029;-39
2023/10/10 15:23:47;;;;;;;12.68;5.78;;;23.00;99.90;;;;;;5072821;28;20028;-37
2023/10/10 15:26:20;;;;;;;10.93;5.93;;;23.00;99.90;;;;;;5054768;28;20127;-37
2023/10/10 15:28:46;;;;;;;12.98;6.53;;;22.90;99.90;;;;;;5072820;28;20033;-38
2023/10/10 15:31:13;;;;;;;12.10;5.30;;;22.90;99.90;;;;;;5072831;28;20029;-37
2023/10/10 15:33:47;;;;;;;14.98;6.18;;;22.90;99.90;;;;;;5072607;28;20076;-49
2023/10/10 15:36:13;;;;;;;12.15;5.85;;;22.80;99.90;;;;;;5054976;28;20038;-48
2023/10/10 15:38:38;;;;;;;14.88;6.00;;;22.80;99.90;;;;;;5072608;28;20188;-37